sensor_id;sensor_type;location;lat;lon;timestamp;temperature;humidity
21312;DHT22;18076;52.154;10.570;2022-12-07T00:00:29;2.80;99.90
21312;DHT22;18076;52.154;10.570;2022-12-07T00:02:55;2.80;99.90
21312;DHT22;18076;52.154;10.570;2022-12-07T00:05:20;2.70;99.90
21312;DHT22;18076;52.154;10.570;2022-12-07T00:07:46;2.70;99.90
21312;DHT22;18076;52.154;10.570;2022-12-07T00:10:11;2.70;99.90
21312;DHT22;18076;52.154;10.570;2022-12-07T00:12:37;2.70;99.90
21312;DHT22;18076;52.154;10.570;2022-12-07T00:15:03;2.80;99.90
21312;DHT22;18076;52.154;10.570;2022-12-07T00:17:28;2.80;99.90
21312;DHT22;18076;52.154;10.570;2022-12-07T00:19:54;2.90;99.90
21312;DHT22;18076;52.154;10.570;2022-12-07T00:22:19;2.90;99.90
21312;DHT22;18076;52.154;10.570;2022-12-07T00:24:45;2.90;99.90
21312;DHT22;18076;52.154;10.570;2022-12-07T00:27:10;2.90;99.90
21312;DHT22;18076;52.154;10.570;2022-12-07T00:29:36;2.90;99.90
21312;DHT22;18076;52.154;10.570;2022-12-07T00:32:02;3.00;99.90
21312;DHT22;18076;52.154;10.570;2022-12-07T00:34:28;3.00;99.90
21312;DHT22;18076;52.154;10.570;2022-12-07T00:36:53;3.00;99.90
21312;DHT22;18076;52.154;10.570;2022-12-07T00:39:19;3.10;99.90
21312;DHT22;18076;52.154;10.570;2022-12-07T00:41:44;3.10;99.90
21312;DHT22;18076;52.154;10.570;2022-12-07T00:44:12;3.10;99.90
21312;DHT22;18076;52.154;10.570;2022-12-07T00:46:38;3.10;99.90
21312;DHT22;18076;52.154;10.570;2022-12-07T00:49:03;3.20;99.90
21312;DHT22;18076;52.154;10.570;2022-12-07T00:51:29;3.20;99.90
21312;DHT22;18076;52.154;10.570;2022-12-07T00:53:55;3.20;99.90
21312;DHT22;18076;52.154;10.570;2022-12-07T00:56:21;3.20;99.90
21312;DHT22;18076;52.154;10.570;2022-12-07T00:58:54;3.20;99.90
21312;DHT22;18076;52.154;10.570;2022-12-07T01:01:21;3.20;99.90
21312;DHT22;18076;52.154;10.570;2022-12-07T01:03:46;3.20;99.90
21312;DHT22;18076;52.154;10.570;2022-12-07T01:06:16;3.20;99.90
21312;DHT22;18076;52.154;10.570;2022-12-07T01:08:42;3.20;99.90
21312;DHT22;18076;52.154;10.570;2022-12-07T01:11:07;3.20;99.90
21312;DHT22;18076;52.154;10.570;2022-12-07T01:13:34;3.20;99.90
21312;DHT22;18076;52.154;10.570;2022-12-07T01:16:01;3.20;99.90
21312;DHT22;18076;52.154;10.570;2022-12-07T01:18:27;3.20;99.90
21312;DHT22;18076;52.154;10.570;2022-12-07T01:23:27;3.30;99.90
21312;DHT22;18076;52.154;10.570;2022-12-07T01:25:54;3.30;99.90
21312;DHT22;18076;52.154;10.570;2022-12-07T01:28:20;3.30;99.90
21312;DHT22;18076;52.154;10.570;2022-12-07T01:30:53;3.30;99.90
21312;DHT22;18076;52.154;10.570;2022-12-07T01:33:19;3.30;99.90
21312;DHT22;18076;52.154;10.570;2022-12-07T01:35:44;3.30;99.90
21312;DHT22;18076;52.154;10.570;2022-12-07T01:38:10;3.20;99.90
21312;DHT22;18076;52.154;10.570;2022-12-07T01:40:35;3.40;99.90
21312;DHT22;18076;52.154;10.570;2022-12-07T01:43:01;3.40;99.90
21312;DHT22;18076;52.154;10.570;2022-12-07T01:45:37;3.40;99.90
21312;DHT22;18076;52.154;10.570;2022-12-07T01:48:03;3.30;99.90
21312;DHT22;18076;52.154;10.570;2022-12-07T01:50:29;3.40;99.90
21312;DHT22;18076;52.154;10.570;2022-12-07T01:52:58;3.40;99.90
21312;DHT22;18076;52.154;10.570;2022-12-07T01:55:24;3.40;99.90
21312;DHT22;18076;52.154;10.570;2022-12-07T01:57:50;3.40;99.90
21312;DHT22;18076;52.154;10.570;2022-12-07T02:00:17;3.40;99.90
21312;DHT22;18076;52.154;10.570;2022-12-07T02:02:45;3.40;99.90
21312;DHT22;18076;52.154;10.570;2022-12-07T02:05:12;3.40;99.90
21312;DHT22;18076;52.154;10.570;2022-12-07T02:07:38;3.50;99.90
21312;DHT22;18076;52.154;10.570;2022-12-07T02:10:14;3.50;99.90
21312;DHT22;18076;52.154;10.570;2022-12-07T02:12:39;3.50;99.90
21312;DHT22;18076;52.154;10.570;2022-12-07T02:15:05;3.50;99.90
21312;DHT22;18076;52.154;10.570;2022-12-07T02:17:37;3.50;99.90
21312;DHT22;18076;52.154;10.570;2022-12-07T02:22:54;3.50;99.90
21312;DHT22;18076;52.154;10.570;2022-12-07T02:28:17;3.60;99.90
21312;DHT22;18076;52.154;10.570;2022-12-07T02:30:45;3.50;99.90
21312;DHT22;18076;52.154;10.570;2022-12-07T02:33:19;3.50;99.90
21312;DHT22;18076;52.154;10.570;2022-12-07T02:35:48;3.50;99.90
21312;DHT22;18076;52.154;10.570;2022-12-07T02:40:47;3.50;99.90
21312;DHT22;18076;52.154;10.570;2022-12-07T02:43:31;3.50;99.90
21312;DHT22;18076;52.154;10.570;2022-12-07T02:46:03;3.50;99.90
21312;DHT22;18076;52.154;10.570;2022-12-07T02:48:29;3.40;99.90
21312;DHT22;18076;52.154;10.570;2022-12-07T02:50:57;3.50;99.90
21312;DHT22;18076;52.154;10.570;2022-12-07T02:55:54;3.50;99.90
21312;DHT22;18076;52.154;10.570;2022-12-07T02:58:23;3.50;99.90
21312;DHT22;18076;52.154;10.570;2022-12-07T03:03:36;3.50;99.90
21312;DHT22;18076;52.154;10.570;2022-12-07T03:08:34;3.50;99.90
21312;DHT22;18076;52.154;10.570;2022-12-07T03:16:05;3.50;99.90
21312;DHT22;18076;52.154;10.570;2022-12-07T03:18:34;3.50;99.90
21312;DHT22;18076;52.154;10.570;2022-12-07T03:21:02;3.50;99.90
21312;DHT22;18076;52.154;10.570;2022-12-07T03:23:29;3.60;99.90
21312;DHT22;18076;52.154;10.570;2022-12-07T03:25:57;3.60;99.90
21312;DHT22;18076;52.154;10.570;2022-12-07T03:28:26;3.60;99.90
21312;DHT22;18076;52.154;10.570;2022-12-07T03:35:45;3.60;99.90
21312;DHT22;18076;52.154;10.570;2022-12-07T03:41:06;3.70;99.90
21312;DHT22;18076;52.154;10.570;2022-12-07T03:43:34;3.70;99.90
21312;DHT22;18076;52.154;10.570;2022-12-07T03:48:36;3.70;99.90
21312;DHT22;18076;52.154;10.570;2022-12-07T03:53:43;3.70;99.90
21312;DHT22;18076;52.154;10.570;2022-12-07T03:56:10;3.70;99.90
21312;DHT22;18076;52.154;10.570;2022-12-07T03:58:37;3.70;99.90
21312;DHT22;18076;52.154;10.570;2022-12-07T04:01:03;3.70;99.90
21312;DHT22;18076;52.154;10.570;2022-12-07T04:03:29;3.70;99.90
21312;DHT22;18076;52.154;10.570;2022-12-07T04:05:54;3.70;99.90
21312;DHT22;18076;52.154;10.570;2022-12-07T04:08:20;3.80;99.90
21312;DHT22;18076;52.154;10.570;2022-12-07T04:10:45;3.80;99.90
21312;DHT22;18076;52.154;10.570;2022-12-07T04:13:11;3.90;99.90
21312;DHT22;18076;52.154;10.570;2022-12-07T04:15:36;3.90;99.90
21312;DHT22;18076;52.154;10.570;2022-12-07T04:18:02;3.90;99.90
21312;DHT22;18076;52.154;10.570;2022-12-07T04:20:28;3.90;99.90
21312;DHT22;18076;52.154;10.570;2022-12-07T04:22:53;4.00;99.90
21312;DHT22;18076;52.154;10.570;2022-12-07T04:25:19;4.00;99.90
21312;DHT22;18076;52.154;10.570;2022-12-07T04:27:44;4.00;99.90
21312;DHT22;18076;52.154;10.570;2022-12-07T04:30:10;4.00;99.90
21312;DHT22;18076;52.154;10.570;2022-12-07T04:32:35;4.10;99.90
21312;DHT22;18076;52.154;10.570;2022-12-07T04:35:02;4.10;99.90
21312;DHT22;18076;52.154;10.570;2022-12-07T04:37:28;4.10;99.90
21312;DHT22;18076;52.154;10.570;2022-12-07T04:39:53;4.20;99.90
21312;DHT22;18076;52.154;10.570;2022-12-07T04:42:19;4.20;99.90
21312;DHT22;18076;52.154;10.570;2022-12-07T04:44:44;4.30;99.90
21312;DHT22;18076;52.154;10.570;2022-12-07T04:47:10;4.20;99.90
21312;DHT22;18076;52.154;10.570;2022-12-07T04:49:35;4.20;99.90
21312;DHT22;18076;52.154;10.570;2022-12-07T04:52:01;4.20;99.90
21312;DHT22;18076;52.154;10.570;2022-12-07T04:54:26;4.30;99.90
21312;DHT22;18076;52.154;10.570;2022-12-07T04:56:52;4.30;99.90
21312;DHT22;18076;52.154;10.570;2022-12-07T04:59:17;4.30;99.90
21312;DHT22;18076;52.154;10.570;2022-12-07T05:01:43;4.30;99.90
21312;DHT22;18076;52.154;10.570;2022-12-07T05:04:08;4.30;99.90
21312;DHT22;18076;52.154;10.570;2022-12-07T05:06:34;4.20;99.90
21312;DHT22;18076;52.154;10.570;2022-12-07T05:09:00;4.20;99.90
21312;DHT22;18076;52.154;10.570;2022-12-07T05:11:25;4.20;99.90
21312;DHT22;18076;52.154;10.570;2022-12-07T05:16:38;4.10;99.90
21312;DHT22;18076;52.154;10.570;2022-12-07T05:19:04;4.10;99.90
21312;DHT22;18076;52.154;10.570;2022-12-07T05:21:30;4.10;99.90
21312;DHT22;18076;52.154;10.570;2022-12-07T05:23:55;4.10;99.90
21312;DHT22;18076;52.154;10.570;2022-12-07T05:26:21;4.10;99.90
21312;DHT22;18076;52.154;10.570;2022-12-07T05:28:49;4.10;99.90
21312;DHT22;18076;52.154;10.570;2022-12-07T05:31:15;4.10;99.90
21312;DHT22;18076;52.154;10.570;2022-12-07T05:33:41;4.10;99.90
21312;DHT22;18076;52.154;10.570;2022-12-07T05:36:06;4.10;99.90
21312;DHT22;18076;52.154;10.570;2022-12-07T05:38:32;4.10;99.90
21312;DHT22;18076;52.154;10.570;2022-12-07T05:41:01;4.10;99.90
21312;DHT22;18076;52.154;10.570;2022-12-07T05:43:28;4.10;99.90
21312;DHT22;18076;52.154;10.570;2022-12-07T05:45:53;4.10;99.90
21312;DHT22;18076;52.154;10.570;2022-12-07T05:48:19;4.10;99.90
21312;DHT22;18076;52.154;10.570;2022-12-07T05:50:47;4.10;99.90
21312;DHT22;18076;52.154;10.570;2022-12-07T05:53:12;4.10;99.90
21312;DHT22;18076;52.154;10.570;2022-12-07T05:55:38;4.10;99.90
21312;DHT22;18076;52.154;10.570;2022-12-07T05:58:03;4.20;99.90
21312;DHT22;18076;52.154;10.570;2022-12-07T06:00:47;4.10;99.90
21312;DHT22;18076;52.154;10.570;2022-12-07T06:03:13;4.10;99.90
21312;DHT22;18076;52.154;10.570;2022-12-07T06:05:39;4.10;99.90
21312;DHT22;18076;52.154;10.570;2022-12-07T06:08:04;4.10;99.90
21312;DHT22;18076;52.154;10.570;2022-12-07T06:10:30;4.10;99.90
21312;DHT22;18076;52.154;10.570;2022-12-07T06:12:55;4.10;99.90
21312;DHT22;18076;52.154;10.570;2022-12-07T06:15:21;4.10;99.90
21312;DHT22;18076;52.154;10.570;2022-12-07T06:17:48;4.10;99.90
21312;DHT22;18076;52.154;10.570;2022-12-07T06:20:13;4.10;99.90
21312;DHT22;18076;52.154;10.570;2022-12-07T06:22:39;4.10;99.90
21312;DHT22;18076;52.154;10.570;2022-12-07T06:25:04;4.10;99.90
21312;DHT22;18076;52.154;10.570;2022-12-07T06:27:30;4.00;99.90
21312;DHT22;18076;52.154;10.570;2022-12-07T06:29:58;4.00;99.90
21312;DHT22;18076;52.154;10.570;2022-12-07T06:32:23;4.00;99.90
21312;DHT22;18076;52.154;10.570;2022-12-07T06:34:49;4.00;99.90
21312;DHT22;18076;52.154;10.570;2022-12-07T06:37:14;4.00;99.90
21312;DHT22;18076;52.154;10.570;2022-12-07T06:39:40;4.00;99.90
21312;DHT22;18076;52.154;10.570;2022-12-07T06:42:05;4.10;99.90
21312;DHT22;18076;52.154;10.570;2022-12-07T06:44:31;4.10;99.90
21312;DHT22;18076;52.154;10.570;2022-12-07T06:46:56;4.10;99.90
21312;DHT22;18076;52.154;10.570;2022-12-07T06:49:22;4.10;99.90
21312;DHT22;18076;52.154;10.570;2022-12-07T06:51:47;4.10;99.90
21312;DHT22;18076;52.154;10.570;2022-12-07T06:54:13;4.10;99.90
21312;DHT22;18076;52.154;10.570;2022-12-07T06:56:39;4.10;99.90
21312;DHT22;18076;52.154;10.570;2022-12-07T06:59:05;4.00;99.90
21312;DHT22;18076;52.154;10.570;2022-12-07T07:01:31;4.00;99.90
21312;DHT22;18076;52.154;10.570;2022-12-07T07:03:57;4.00;99.90
21312;DHT22;18076;52.154;10.570;2022-12-07T07:06:23;4.00;99.90
21312;DHT22;18076;52.154;10.570;2022-12-07T07:08:48;4.00;99.90
21312;DHT22;18076;52.154;10.570;2022-12-07T07:11:14;4.00;99.90
21312;DHT22;18076;52.154;10.570;2022-12-07T07:13:39;4.00;99.90
21312;DHT22;18076;52.154;10.570;2022-12-07T07:16:05;4.00;99.90
21312;DHT22;18076;52.154;10.570;2022-12-07T07:18:31;4.00;99.90
21312;DHT22;18076;52.154;10.570;2022-12-07T07:20:57;4.00;99.90
21312;DHT22;18076;52.154;10.570;2022-12-07T07:23:22;4.00;99.90
21312;DHT22;18076;52.154;10.570;2022-12-07T07:25:48;4.00;99.90
21312;DHT22;18076;52.154;10.570;2022-12-07T07:28:13;4.00;99.90
21312;DHT22;18076;52.154;10.570;2022-12-07T07:30:39;4.00;99.90
21312;DHT22;18076;52.154;10.570;2022-12-07T07:33:05;4.00;99.90
21312;DHT22;18076;52.154;10.570;2022-12-07T07:35:31;4.00;99.90
21312;DHT22;18076;52.154;10.570;2022-12-07T07:37:57;4.00;99.90
21312;DHT22;18076;52.154;10.570;2022-12-07T07:40:23;4.00;99.90
21312;DHT22;18076;52.154;10.570;2022-12-07T07:42:49;4.00;99.90
21312;DHT22;18076;52.154;10.570;2022-12-07T07:45:15;3.90;99.90
21312;DHT22;18076;52.154;10.570;2022-12-07T07:47:40;3.90;99.90
21312;DHT22;18076;52.154;10.570;2022-12-07T07:50:06;3.90;99.90
21312;DHT22;18076;52.154;10.570;2022-12-07T07:52:31;4.00;99.90
21312;DHT22;18076;52.154;10.570;2022-12-07T07:54:57;4.00;99.90
21312;DHT22;18076;52.154;10.570;2022-12-07T07:57:22;4.00;99.90
21312;DHT22;18076;52.154;10.570;2022-12-07T07:59:48;4.00;99.90
21312;DHT22;18076;52.154;10.570;2022-12-07T08:02:14;4.00;99.90
21312;DHT22;18076;52.154;10.570;2022-12-07T08:04:40;4.00;99.90
21312;DHT22;18076;52.154;10.570;2022-12-07T08:07:06;4.00;99.90
21312;DHT22;18076;52.154;10.570;2022-12-07T08:09:31;4.00;99.90
21312;DHT22;18076;52.154;10.570;2022-12-07T08:11:57;4.00;99.90
21312;DHT22;18076;52.154;10.570;2022-12-07T08:14:23;4.00;99.90
21312;DHT22;18076;52.154;10.570;2022-12-07T08:16:49;4.00;99.90
21312;DHT22;18076;52.154;10.570;2022-12-07T08:19:14;3.90;99.90
21312;DHT22;18076;52.154;10.570;2022-12-07T08:21:40;3.90;99.90
21312;DHT22;18076;52.154;10.570;2022-12-07T08:24:05;3.90;99.90
21312;DHT22;18076;52.154;10.570;2022-12-07T08:26:31;3.90;99.90
21312;DHT22;18076;52.154;10.570;2022-12-07T08:28:56;3.80;99.90
21312;DHT22;18076;52.154;10.570;2022-12-07T08:31:22;3.90;99.90
21312;DHT22;18076;52.154;10.570;2022-12-07T08:33:48;3.90;99.90
21312;DHT22;18076;52.154;10.570;2022-12-07T08:36:14;3.90;99.90
21312;DHT22;18076;52.154;10.570;2022-12-07T08:38:40;3.90;99.90
21312;DHT22;18076;52.154;10.570;2022-12-07T08:41:06;3.90;99.90
21312;DHT22;18076;52.154;10.570;2022-12-07T08:43:32;3.90;99.90
21312;DHT22;18076;52.154;10.570;2022-12-07T08:48:37;4.00;99.90
21312;DHT22;18076;52.154;10.570;2022-12-07T08:51:04;4.00;99.90
21312;DHT22;18076;52.154;10.570;2022-12-07T08:53:29;4.00;99.90
21312;DHT22;18076;52.154;10.570;2022-12-07T08:55:56;4.00;99.90
21312;DHT22;18076;52.154;10.570;2022-12-07T08:58:21;4.00;99.90
21312;DHT22;18076;52.154;10.570;2022-12-07T09:00:47;4.00;99.90
21312;DHT22;18076;52.154;10.570;2022-12-07T09:03:13;4.10;99.90
21312;DHT22;18076;52.154;10.570;2022-12-07T09:05:38;4.10;99.90
21312;DHT22;18076;52.154;10.570;2022-12-07T09:08:04;4.00;99.90
21312;DHT22;18076;52.154;10.570;2022-12-07T09:10:30;4.00;99.90
21312;DHT22;18076;52.154;10.570;2022-12-07T09:12:56;3.90;99.90
21312;DHT22;18076;52.154;10.570;2022-12-07T09:15:26;3.90;99.90
21312;DHT22;18076;52.154;10.570;2022-12-07T09:17:52;3.90;99.90
21312;DHT22;18076;52.154;10.570;2022-12-07T09:20:18;4.00;99.90
21312;DHT22;18076;52.154;10.570;2022-12-07T09:22:44;4.00;99.90
21312;DHT22;18076;52.154;10.570;2022-12-07T09:25:09;4.00;99.90
21312;DHT22;18076;52.154;10.570;2022-12-07T09:27:35;3.90;99.90
21312;DHT22;18076;52.154;10.570;2022-12-07T09:30:00;3.80;99.90
21312;DHT22;18076;52.154;10.570;2022-12-07T09:32:26;3.80;99.90
21312;DHT22;18076;52.154;10.570;2022-12-07T09:34:52;3.80;99.90
21312;DHT22;18076;52.154;10.570;2022-12-07T09:37:17;3.80;99.90
21312;DHT22;18076;52.154;10.570;2022-12-07T09:39:43;3.80;99.90
21312;DHT22;18076;52.154;10.570;2022-12-07T09:42:08;3.80;99.90
21312;DHT22;18076;52.154;10.570;2022-12-07T09:44:36;3.80;99.90
21312;DHT22;18076;52.154;10.570;2022-12-07T09:47:02;3.90;99.90
21312;DHT22;18076;52.154;10.570;2022-12-07T09:49:28;3.90;99.90
21312;DHT22;18076;52.154;10.570;2022-12-07T09:52:02;4.00;99.90
21312;DHT22;18076;52.154;10.570;2022-12-07T09:54:28;4.00;99.90
21312;DHT22;18076;52.154;10.570;2022-12-07T09:56:55;4.00;99.90
21312;DHT22;18076;52.154;10.570;2022-12-07T09:59:21;4.10;99.90
21312;DHT22;18076;52.154;10.570;2022-12-07T10:01:48;4.10;99.90
21312;DHT22;18076;52.154;10.570;2022-12-07T10:04:15;4.20;99.90
21312;DHT22;18076;52.154;10.570;2022-12-07T10:06:42;4.20;99.90
21312;DHT22;18076;52.154;10.570;2022-12-07T10:09:09;4.20;99.90
21312;DHT22;18076;52.154;10.570;2022-12-07T10:11:34;4.20;99.90
21312;DHT22;18076;52.154;10.570;2022-12-07T10:14:10;4.30;99.90
21312;DHT22;18076;52.154;10.570;2022-12-07T10:16:41;4.30;99.90
21312;DHT22;18076;52.154;10.570;2022-12-07T10:19:17;4.30;99.90
21312;DHT22;18076;52.154;10.570;2022-12-07T10:21:58;4.30;99.90
21312;DHT22;18076;52.154;10.570;2022-12-07T10:24:24;4.30;99.90
21312;DHT22;18076;52.154;10.570;2022-12-07T10:26:52;4.30;99.90
21312;DHT22;18076;52.154;10.570;2022-12-07T10:31:57;4.30;99.90
21312;DHT22;18076;52.154;10.570;2022-12-07T10:34:24;4.30;99.90
21312;DHT22;18076;52.154;10.570;2022-12-07T10:36:51;4.40;99.90
21312;DHT22;18076;52.154;10.570;2022-12-07T10:39:18;4.60;99.90
21312;DHT22;18076;52.154;10.570;2022-12-07T10:42:44;4.70;99.90
21312;DHT22;18076;52.154;10.570;2022-12-07T10:44:39;4.70;99.90
21312;DHT22;18076;52.154;10.570;2022-12-07T11:00:20;4.80;99.90
21312;DHT22;18076;52.154;10.570;2022-12-07T11:02:50;4.80;99.90
21312;DHT22;18076;52.154;10.570;2022-12-07T11:12:40;5.00;99.90
21312;DHT22;18076;52.154;10.570;2022-12-07T11:17:45;5.30;99.90
21312;DHT22;18076;52.154;10.570;2022-12-07T11:25:16;5.30;99.90
21312;DHT22;18076;52.154;10.570;2022-12-07T11:30:28;5.20;99.90
21312;DHT22;18076;52.154;10.570;2022-12-07T11:37:55;5.10;99.90
21312;DHT22;18076;52.154;10.570;2022-12-07T11:40:27;5.10;99.90
21312;DHT22;18076;52.154;10.570;2022-12-07T11:43:11;5.00;99.90
21312;DHT22;18076;52.154;10.570;2022-12-07T11:45:41;4.90;99.90
21312;DHT22;18076;52.154;10.570;2022-12-07T11:48:11;4.90;99.90
21312;DHT22;18076;52.154;10.570;2022-12-07T11:50:45;4.80;99.90
21312;DHT22;18076;52.154;10.570;2022-12-07T11:53:22;4.80;99.90
21312;DHT22;18076;52.154;10.570;2022-12-07T11:55:57;4.80;99.90
21312;DHT22;18076;52.154;10.570;2022-12-07T12:03:44;4.90;99.90
21312;DHT22;18076;52.154;10.570;2022-12-07T12:06:10;4.90;99.90
21312;DHT22;18076;52.154;10.570;2022-12-07T12:08:38;5.00;99.90
21312;DHT22;18076;52.154;10.570;2022-12-07T12:11:10;4.90;99.90
21312;DHT22;18076;52.154;10.570;2022-12-07T12:21:27;4.80;99.90
21312;DHT22;18076;52.154;10.570;2022-12-07T12:23:58;4.70;99.90
21312;DHT22;18076;52.154;10.570;2022-12-07T12:26:26;4.80;99.90
21312;DHT22;18076;52.154;10.570;2022-12-07T12:28:54;4.90;99.90
21312;DHT22;18076;52.154;10.570;2022-12-07T12:33:50;4.90;99.90
21312;DHT22;18076;52.154;10.570;2022-12-07T12:51:51;4.40;99.90
21312;DHT22;18076;52.154;10.570;2022-12-07T12:54:21;4.20;99.90
21312;DHT22;18076;52.154;10.570;2022-12-07T13:07:13;4.10;99.90
21312;DHT22;18076;52.154;10.570;2022-12-07T13:09:41;4.10;99.90
21312;DHT22;18076;52.154;10.570;2022-12-07T13:12:12;4.20;99.90
21312;DHT22;18076;52.154;10.570;2022-12-07T13:14:55;4.20;99.90
21312;DHT22;18076;52.154;10.570;2022-12-07T13:19:56;4.30;99.90
21312;DHT22;18076;52.154;10.570;2022-12-07T13:27:22;4.20;99.90
21312;DHT22;18076;52.154;10.570;2022-12-07T13:29:48;4.20;99.90
21312;DHT22;18076;52.154;10.570;2022-12-07T13:32:24;4.30;99.90
21312;DHT22;18076;52.154;10.570;2022-12-07T13:34:50;4.30;99.90
21312;DHT22;18076;52.154;10.570;2022-12-07T13:37:28;4.40;99.90
21312;DHT22;18076;52.154;10.570;2022-12-07T13:39:55;4.40;99.90
21312;DHT22;18076;52.154;10.570;2022-12-07T13:42:29;4.40;99.90
21312;DHT22;18076;52.154;10.570;2022-12-07T13:44:55;4.40;99.90
21312;DHT22;18076;52.154;10.570;2022-12-07T13:47:39;4.50;99.90
21312;DHT22;18076;52.154;10.570;2022-12-07T13:50:23;4.40;99.90
21312;DHT22;18076;52.154;10.570;2022-12-07T13:52:49;4.40;99.90
21312;DHT22;18076;52.154;10.570;2022-12-07T13:55:16;4.40;99.90
21312;DHT22;18076;52.154;10.570;2022-12-07T13:57:42;4.40;99.90
21312;DHT22;18076;52.154;10.570;2022-12-07T14:00:19;4.40;99.90
21312;DHT22;18076;52.154;10.570;2022-12-07T14:05:30;4.50;99.90
21312;DHT22;18076;52.154;10.570;2022-12-07T14:08:21;4.40;99.90
21312;DHT22;18076;52.154;10.570;2022-12-07T14:16:03;4.40;99.90
21312;DHT22;18076;52.154;10.570;2022-12-07T14:18:30;4.40;99.90
21312;DHT22;18076;52.154;10.570;2022-12-07T14:23:36;4.50;99.90
21312;DHT22;18076;52.154;10.570;2022-12-07T14:26:13;4.50;99.90
21312;DHT22;18076;52.154;10.570;2022-12-07T14:28:39;4.40;99.90
21312;DHT22;18076;52.154;10.570;2022-12-07T14:31:11;4.40;99.90
21312;DHT22;18076;52.154;10.570;2022-12-07T14:33:38;4.50;99.90
21312;DHT22;18076;52.154;10.570;2022-12-07T14:36:03;4.40;99.90
21312;DHT22;18076;52.154;10.570;2022-12-07T14:38:29;4.40;99.90
21312;DHT22;18076;52.154;10.570;2022-12-07T14:40:55;4.40;99.90
21312;DHT22;18076;52.154;10.570;2022-12-07T14:43:40;4.40;99.90
21312;DHT22;18076;52.154;10.570;2022-12-07T14:46:06;4.40;99.90
21312;DHT22;18076;52.154;10.570;2022-12-07T14:48:31;4.40;99.90
21312;DHT22;18076;52.154;10.570;2022-12-07T14:50:57;4.30;99.90
21312;DHT22;18076;52.154;10.570;2022-12-07T14:53:29;4.40;99.90
21312;DHT22;18076;52.154;10.570;2022-12-07T14:55:55;4.40;99.90
21312;DHT22;18076;52.154;10.570;2022-12-07T14:58:21;4.40;99.90
21312;DHT22;18076;52.154;10.570;2022-12-07T15:00:46;4.50;99.90
21312;DHT22;18076;52.154;10.570;2022-12-07T15:03:13;4.40;99.90
21312;DHT22;18076;52.154;10.570;2022-12-07T15:05:38;4.40;99.90
21312;DHT22;18076;52.154;10.570;2022-12-07T15:08:04;4.40;99.90
21312;DHT22;18076;52.154;10.570;2022-12-07T15:10:31;4.50;99.90
21312;DHT22;18076;52.154;10.570;2022-12-07T15:12:57;4.40;99.90
21312;DHT22;18076;52.154;10.570;2022-12-07T15:15:49;4.50;99.90
21312;DHT22;18076;52.154;10.570;2022-12-07T15:18:16;4.40;99.90
21312;DHT22;18076;52.154;10.570;2022-12-07T15:20:41;4.40;99.90
21312;DHT22;18076;52.154;10.570;2022-12-07T15:23:07;4.40;99.90
21312;DHT22;18076;52.154;10.570;2022-12-07T15:25:32;4.40;99.90
21312;DHT22;18076;52.154;10.570;2022-12-07T15:27:58;4.40;99.90
21312;DHT22;18076;52.154;10.570;2022-12-07T15:30:23;4.30;99.90
21312;DHT22;18076;52.154;10.570;2022-12-07T15:32:49;4.40;99.90
21312;DHT22;18076;52.154;10.570;2022-12-07T15:35:15;4.30;99.90
21312;DHT22;18076;52.154;10.570;2022-12-07T15:37:41;4.40;99.90
21312;DHT22;18076;52.154;10.570;2022-12-07T15:40:06;4.40;99.90
21312;DHT22;18076;52.154;10.570;2022-12-07T15:42:32;4.30;99.90
21312;DHT22;18076;52.154;10.570;2022-12-07T15:44:57;4.40;99.90
21312;DHT22;18076;52.154;10.570;2022-12-07T15:47:50;4.30;99.90
21312;DHT22;18076;52.154;10.570;2022-12-07T15:50:15;4.40;99.90
21312;DHT22;18076;52.154;10.570;2022-12-07T15:52:41;4.40;99.90
21312;DHT22;18076;52.154;10.570;2022-12-07T15:55:06;4.30;99.90
21312;DHT22;18076;52.154;10.570;2022-12-07T15:57:32;4.30;99.90
21312;DHT22;18076;52.154;10.570;2022-12-07T15:59:58;4.30;99.90
21312;DHT22;18076;52.154;10.570;2022-12-07T16:02:24;4.30;99.90
21312;DHT22;18076;52.154;10.570;2022-12-07T16:04:50;4.30;99.90
21312;DHT22;18076;52.154;10.570;2022-12-07T16:07:16;4.40;99.90
21312;DHT22;18076;52.154;10.570;2022-12-07T16:09:42;4.30;99.90
21312;DHT22;18076;52.154;10.570;2022-12-07T16:12:08;4.40;99.90
21312;DHT22;18076;52.154;10.570;2022-12-07T16:14:34;4.40;99.90
21312;DHT22;18076;52.154;10.570;2022-12-07T16:16:59;4.40;99.90
21312;DHT22;18076;52.154;10.570;2022-12-07T16:19:25;4.40;99.90
21312;DHT22;18076;52.154;10.570;2022-12-07T16:21:50;4.40;99.90
21312;DHT22;18076;52.154;10.570;2022-12-07T16:24:16;4.40;99.90
21312;DHT22;18076;52.154;10.570;2022-12-07T16:26:42;4.40;99.90
21312;DHT22;18076;52.154;10.570;2022-12-07T16:29:09;4.30;99.90
21312;DHT22;18076;52.154;10.570;2022-12-07T16:31:35;3.80;99.90
21312;DHT22;18076;52.154;10.570;2022-12-07T16:34:01;3.50;99.90
21312;DHT22;18076;52.154;10.570;2022-12-07T16:36:26;3.20;99.90
21312;DHT22;18076;52.154;10.570;2022-12-07T16:38:52;3.10;99.90
21312;DHT22;18076;52.154;10.570;2022-12-07T16:41:18;3.00;99.90
21312;DHT22;18076;52.154;10.570;2022-12-07T16:43:43;2.80;99.90
21312;DHT22;18076;52.154;10.570;2022-12-07T16:46:09;2.90;99.90
21312;DHT22;18076;52.154;10.570;2022-12-07T16:48:36;2.80;99.90
21312;DHT22;18076;52.154;10.570;2022-12-07T16:51:03;2.80;99.90
21312;DHT22;18076;52.154;10.570;2022-12-07T16:53:28;2.80;99.90
21312;DHT22;18076;52.154;10.570;2022-12-07T16:55:54;2.80;99.90
21312;DHT22;18076;52.154;10.570;2022-12-07T16:58:19;2.80;99.90
21312;DHT22;18076;52.154;10.570;2022-12-07T17:00:45;2.80;99.90
21312;DHT22;18076;52.154;10.570;2022-12-07T17:03:11;2.70;99.90
21312;DHT22;18076;52.154;10.570;2022-12-07T17:05:37;2.80;99.90
21312;DHT22;18076;52.154;10.570;2022-12-07T17:08:03;2.80;99.90
21312;DHT22;18076;52.154;10.570;2022-12-07T17:10:29;2.70;99.90
21312;DHT22;18076;52.154;10.570;2022-12-07T17:12:54;2.70;99.90
21312;DHT22;18076;52.154;10.570;2022-12-07T17:15:20;2.70;99.90
21312;DHT22;18076;52.154;10.570;2022-12-07T17:17:56;2.70;99.90
21312;DHT22;18076;52.154;10.570;2022-12-07T17:20:23;2.70;99.90
21312;DHT22;18076;52.154;10.570;2022-12-07T17:22:49;2.60;99.90
21312;DHT22;18076;52.154;10.570;2022-12-07T17:25:15;2.70;99.90
21312;DHT22;18076;52.154;10.570;2022-12-07T17:27:41;2.60;99.90
21312;DHT22;18076;52.154;10.570;2022-12-07T17:30:07;2.60;99.90
21312;DHT22;18076;52.154;10.570;2022-12-07T17:32:33;2.70;99.90
21312;DHT22;18076;52.154;10.570;2022-12-07T17:34:58;2.60;99.90
21312;DHT22;18076;52.154;10.570;2022-12-07T17:37:25;2.70;99.90
21312;DHT22;18076;52.154;10.570;2022-12-07T17:39:51;2.70;99.90
21312;DHT22;18076;52.154;10.570;2022-12-07T17:42:17;2.70;99.90
21312;DHT22;18076;52.154;10.570;2022-12-07T17:45:01;2.70;99.90
21312;DHT22;18076;52.154;10.570;2022-12-07T17:47:27;2.60;99.90
21312;DHT22;18076;52.154;10.570;2022-12-07T17:49:53;2.50;99.90